world map with SCTB marked

SCTB - Airport

This information may not be accurate or current and is not valid for navigation or flight planning. No warranty of fitness for any purpose is made or implied.

flag of Metropolitana de Santiagoflag of Chile

Donate via PayPal

Additional information is available on the NEW Great Circle Mapper

Location
City:  Santiago, Metropolitana de Santiago, Chile
Name:Eulogio Sánchez Airport
ICAO:SCTB

Details
Type:Airport (Aerodrome, Airfield)
Use:Public/Civil
Latitude:33°27'25"S (-33.456943)
Longitude:70°32'50"W (-70.547221)
Elevation:2129 ft (649 m)
Runways:1
Longest:3281 × 98 ft (1000 × 30 m)

Time
Timezone:UTC+30:08 (DST+33:08)
Local Time:

Weather
METAR:SCTB  041400Z 19003KT CAVOK 26/12 Q1014
TAF:SCTB  (expired)

Related Locations
Nearby:
Farthest:AKA: 12373 mi / 19912 km
Ankang, 61, CN

Find:

   beyond  
but within

Other Information
Maps:
Sources:

  


 


Great Circle Mapper   Great Circle Mapper
Great Circle Mapper FAQ   Great Circle Mapper FAQ
  Karl's Home Page
KLS˛   KLS˛ Home
   GC on Facebook
Airlines of the World   Airlines of the World
Donate via PayPal


Copyright © 2004-2019, Karl L. Swartz. All rights reserved.
All trademarks mentioned herein belong to their respective owners.

Please see credits for attribution and copyright information.

Karl Swartz <karl@kls2.com>
  Powered by FreeBSD
Valid HTML 4.01!
Labeled with ICRA
hCard Microformat
Geo Microformat